createdAt,value
2023-05-13T00:00:00.748Z,11.62
2023-05-13T00:02:27.501Z,11.55
2023-05-13T00:04:54.112Z,11.61
2023-05-13T00:07:20.816Z,11.52
2023-05-13T00:09:47.374Z,11.59
2023-05-13T00:12:13.948Z,11.52
2023-05-13T00:14:40.874Z,11.53
2023-05-13T00:17:07.398Z,11.55
2023-05-13T00:19:33.984Z,11.67
2023-05-13T00:22:00.678Z,11.67
2023-05-13T00:24:27.701Z,11.72
2023-05-13T00:26:54.242Z,11.81
2023-05-13T00:29:20.793Z,11.76
2023-05-13T00:31:47.536Z,11.76
2023-05-13T00:34:14.260Z,11.67
2023-05-13T00:36:40.808Z,11.68
2023-05-13T00:39:07.769Z,11.74
2023-05-13T00:41:34.380Z,11.80
2023-05-13T00:44:01.171Z,11.77
2023-05-13T00:46:31.743Z,11.69
2023-05-13T00:48:59.181Z,11.65
2023-05-13T00:51:26.077Z,11.60
2023-05-13T00:53:52.900Z,11.65
2023-05-13T00:56:22.792Z,11.54
2023-05-13T00:58:50.022Z,11.52
2023-05-13T01:01:44.742Z,11.55
2023-05-13T01:04:24.341Z,11.64
2023-05-13T01:07:25.502Z,11.66
2023-05-13T01:10:06.635Z,11.69
2023-05-13T01:12:39.992Z,11.75
2023-05-13T01:15:07.062Z,11.84
2023-05-13T01:18:09.717Z,11.91
2023-05-13T01:20:40.681Z,11.97
2023-05-13T01:23:07.329Z,12.03
2023-05-13T01:25:33.945Z,11.95
2023-05-13T01:28:01.434Z,12.06
2023-05-13T01:30:28.178Z,12.03
2023-05-13T01:32:55.002Z,12.09
2023-05-13T01:35:24.424Z,11.99
2023-05-13T01:37:51.627Z,12.08
2023-05-13T01:40:31.613Z,12.08
2023-05-13T01:42:59.230Z,12.23
2023-05-13T01:45:28.825Z,12.39
2023-05-13T01:47:56.007Z,12.28
2023-05-13T01:50:22.734Z,12.19
2023-05-13T01:52:49.494Z,12.16
2023-05-13T01:55:16.214Z,12.20
2023-05-13T01:57:42.786Z,12.21
2023-05-13T02:00:10.086Z,12.31
2023-05-13T02:02:36.736Z,12.34
2023-05-13T02:05:03.482Z,12.18
2023-05-13T02:07:30.255Z,12.18
2023-05-13T02:09:59.763Z,12.25
2023-05-13T02:12:27.105Z,12.35
2023-05-13T02:14:54.866Z,12.12
2023-05-13T02:17:22.677Z,12.14
2023-05-13T02:19:49.527Z,12.11
2023-05-13T02:22:16.580Z,12.05
2023-05-13T02:24:43.264Z,12.14
2023-05-13T02:27:12.583Z,12.13
2023-05-13T02:29:39.260Z,12.23
2023-05-13T02:32:06.206Z,12.13
2023-05-13T02:34:32.869Z,12.13
2023-05-13T02:36:59.572Z,12.11
2023-05-13T02:39:26.108Z,12.08
2023-05-13T02:41:52.683Z,12.15
2023-05-13T02:44:19.212Z,12.16
2023-05-13T02:46:46.046Z,12.15
2023-05-13T02:49:12.995Z,12.15
2023-05-13T02:51:39.533Z,12.13
2023-05-13T02:54:07.022Z,12.13
2023-05-13T02:56:33.579Z,12.12
2023-05-13T02:59:00.287Z,12.01
2023-05-13T03:01:27.146Z,12.16
2023-05-13T03:03:53.873Z,12.08
2023-05-13T03:06:20.575Z,12.14
2023-05-13T03:08:47.071Z,12.13
2023-05-13T03:11:13.625Z,12.13
2023-05-13T03:13:40.500Z,12.12
2023-05-13T03:16:07.150Z,12.15
2023-05-13T03:18:36.035Z,12.13
2023-05-13T03:21:03.172Z,12.10
2023-05-13T03:23:29.806Z,12.21
2023-05-13T03:25:56.368Z,12.17
2023-05-13T03:28:22.878Z,12.11
2023-05-13T03:30:49.425Z,12.13
2023-05-13T03:33:15.986Z,12.11
2023-05-13T03:35:42.714Z,12.10
2023-05-13T03:38:09.219Z,12.17
2023-05-13T03:40:35.786Z,12.15
2023-05-13T03:43:02.448Z,12.14
2023-05-13T03:45:28.963Z,12.19
2023-05-13T03:47:55.531Z,12.18
2023-05-13T03:50:22.238Z,12.19
2023-05-13T03:52:48.973Z,12.20
2023-05-13T03:55:15.542Z,12.23
2023-05-13T03:57:45.187Z,12.11
2023-05-13T04:00:12.540Z,12.11
2023-05-13T04:02:39.150Z,12.18
2023-05-13T04:05:06.337Z,12.02
2023-05-13T04:07:32.984Z,12.04
2023-05-13T04:09:59.545Z,12.01
2023-05-13T04:12:26.051Z,12.03
2023-05-13T04:14:52.609Z,12.11
2023-05-13T04:17:19.125Z,12.09
2023-05-13T04:19:45.647Z,12.25
2023-05-13T04:22:12.210Z,12.13
2023-05-13T04:24:38.779Z,12.01
2023-05-13T04:27:05.618Z,12.13
2023-05-13T04:29:32.167Z,12.08
2023-05-13T04:31:58.762Z,12.22
2023-05-13T04:34:25.347Z,12.24
2023-05-13T04:36:51.911Z,12.43
2023-05-13T04:39:18.415Z,12.23
2023-05-13T04:41:45.010Z,12.16
2023-05-13T04:44:11.637Z,12.08
2023-05-13T04:46:40.458Z,12.12
2023-05-13T04:49:07.140Z,12.13
2023-05-13T04:51:34.244Z,12.21
2023-05-13T04:54:01.226Z,12.38
2023-05-13T04:56:28.050Z,12.36
2023-05-13T04:58:54.630Z,12.33
2023-05-13T05:01:21.276Z,12.45
2023-05-13T05:03:47.877Z,12.40
2023-05-13T05:06:14.546Z,12.68
2023-05-13T05:08:41.139Z,12.64
2023-05-13T05:11:07.702Z,12.65
2023-05-13T05:13:34.383Z,12.53
2023-05-13T05:16:00.913Z,12.72
2023-05-13T05:18:27.625Z,12.84
2023-05-13T05:20:54.265Z,13.10
2023-05-13T05:23:20.993Z,13.09
2023-05-13T05:25:49.795Z,13.01
2023-05-13T05:28:19.783Z,12.92
2023-05-13T05:30:46.760Z,12.76
2023-05-13T05:33:13.471Z,12.83
2023-05-13T05:35:39.984Z,12.88
2023-05-13T05:38:07.992Z,13.07
2023-05-13T05:40:44.007Z,13.06
2023-05-13T05:43:13.956Z,13.25
2023-05-13T05:45:40.673Z,13.07
2023-05-13T05:48:07.732Z,13.22
2023-05-13T05:50:34.971Z,13.03
2023-05-13T05:53:01.497Z,13.17
2023-05-13T05:55:28.609Z,13.28
2023-05-13T05:58:03.922Z,13.35
2023-05-13T06:00:30.655Z,13.45
2023-05-13T06:02:58.255Z,13.69
2023-05-13T06:05:24.893Z,13.47
2023-05-13T06:07:51.638Z,13.36
2023-05-13T06:10:18.473Z,13.49
2023-05-13T06:12:45.000Z,13.69
2023-05-13T06:15:11.779Z,13.94
2023-05-13T06:17:39.136Z,14.09
2023-05-13T06:20:06.442Z,14.18
2023-05-13T06:22:33.160Z,13.95
2023-05-13T06:25:00.003Z,13.90
2023-05-13T06:27:26.610Z,13.71
2023-05-13T06:29:53.275Z,14.21
2023-05-13T06:32:19.871Z,14.17
2023-05-13T06:34:46.914Z,13.80
2023-05-13T06:37:14.206Z,14.02
2023-05-13T06:39:40.905Z,13.96
2023-05-13T06:42:07.471Z,14.37
2023-05-13T06:44:34.097Z,14.60
2023-05-13T06:47:02.899Z,14.71
2023-05-13T06:49:29.702Z,14.49
2023-05-13T06:51:56.684Z,14.43
2023-05-13T06:54:23.316Z,14.18
2023-05-13T06:56:49.905Z,14.41
2023-05-13T06:59:16.475Z,14.23
2023-05-13T07:01:43.055Z,14.34
2023-05-13T07:04:09.711Z,14.80
2023-05-13T07:06:36.477Z,14.69
2023-05-13T07:09:08.233Z,14.79
2023-05-13T07:11:35.956Z,14.73
2023-05-13T07:14:02.508Z,14.83
2023-05-13T07:16:29.343Z,14.98
2023-05-13T07:18:55.982Z,15.54
2023-05-13T07:21:22.773Z,15.41
2023-05-13T07:23:49.359Z,15.66
2023-05-13T07:26:16.013Z,15.91
2023-05-13T07:28:43.441Z,15.71
2023-05-13T07:31:10.351Z,15.83
2023-05-13T07:33:37.219Z,16.00
2023-05-13T07:36:04.266Z,16.25
2023-05-13T07:38:30.919Z,16.04
2023-05-13T07:40:57.867Z,16.07
2023-05-13T07:43:24.438Z,15.94
2023-05-13T07:45:51.672Z,16.31
2023-05-13T07:48:19.041Z,16.26
2023-05-13T07:50:47.653Z,15.78
2023-05-13T07:53:14.373Z,15.57
2023-05-13T07:55:41.553Z,15.81
2023-05-13T07:58:08.075Z,15.78
2023-05-13T08:00:34.698Z,16.04
2023-05-13T08:03:01.315Z,16.63
2023-05-13T08:05:28.035Z,16.54
2023-05-13T08:07:54.622Z,16.67
2023-05-13T08:10:21.292Z,16.65
2023-05-13T08:12:52.256Z,17.12
2023-05-13T08:15:19.582Z,17.38
2023-05-13T08:17:46.389Z,17.16
2023-05-13T08:20:15.119Z,16.78
2023-05-13T08:22:43.140Z,16.39
2023-05-13T08:25:11.348Z,16.38
2023-05-13T08:27:37.924Z,16.24
2023-05-13T08:30:05.854Z,16.09
2023-05-13T08:32:32.385Z,16.10
2023-05-13T08:34:59.712Z,16.15
2023-05-13T08:37:26.265Z,15.95
2023-05-13T08:39:52.831Z,16.34
2023-05-13T08:42:22.957Z,16.43
2023-05-13T08:44:52.112Z,16.49
2023-05-13T08:47:57.016Z,16.51
2023-05-13T08:50:24.768Z,16.88
2023-05-13T08:52:55.033Z,17.35
2023-05-13T08:55:22.857Z,17.40
2023-05-13T08:57:50.329Z,17.13
2023-05-13T09:00:18.490Z,17.19
2023-05-13T09:02:46.863Z,17.90
2023-05-13T09:05:14.836Z,18.22
2023-05-13T09:07:41.422Z,18.13
2023-05-13T09:10:09.331Z,18.23
2023-05-13T09:12:54.530Z,17.76
2023-05-13T09:15:22.963Z,17.68
2023-05-13T09:17:55.500Z,18.72
2023-05-13T09:20:22.976Z,19.03
2023-05-13T09:22:54.536Z,19.22
2023-05-13T09:25:24.521Z,19.36
2023-05-13T09:27:58.442Z,19.37
2023-05-13T09:30:30.877Z,19.24
2023-05-13T09:33:15.496Z,18.83
2023-05-13T09:35:44.246Z,18.87
2023-05-13T09:38:18.949Z,18.61
2023-05-13T09:40:55.916Z,17.65
2023-05-13T09:43:25.197Z,19.07
2023-05-13T09:45:56.057Z,18.38
2023-05-13T09:48:26.835Z,18.63
2023-05-13T09:50:53.727Z,19.16
2023-05-13T09:53:23.852Z,18.36
2023-05-13T09:55:52.312Z,17.93
2023-05-13T09:58:20.771Z,18.58
2023-05-13T10:00:48.097Z,19.62
2023-05-13T10:03:16.002Z,19.67
2023-05-13T10:05:42.719Z,19.31
2023-05-13T10:08:12.128Z,18.77
2023-05-13T10:10:39.848Z,18.45
2023-05-13T10:13:10.941Z,19.67
2023-05-13T10:15:55.510Z,18.62
2023-05-13T10:18:23.953Z,17.87
2023-05-13T10:20:53.664Z,18.17
2023-05-13T10:23:21.648Z,18.34
2023-05-13T10:25:48.708Z,18.39
2023-05-13T10:28:16.836Z,18.74
2023-05-13T10:30:45.139Z,18.64
2023-05-13T10:33:12.115Z,18.25
2023-05-13T10:35:43.097Z,18.18
2023-05-13T10:38:40.044Z,18.55
2023-05-13T10:41:35.114Z,18.78
2023-05-13T10:44:01.883Z,18.55
2023-05-13T10:46:28.386Z,17.97
2023-05-13T10:48:57.175Z,18.46
2023-05-13T10:51:25.910Z,18.57
2023-05-13T10:53:58.497Z,18.56
2023-05-13T10:56:28.331Z,18.35
2023-05-13T10:59:03.121Z,18.42
2023-05-13T11:01:30.777Z,18.60
2023-05-13T11:04:00.755Z,18.38
2023-05-13T11:06:38.404Z,18.44
2023-05-13T11:09:06.993Z,17.70
2023-05-13T11:11:35.710Z,17.93
2023-05-13T11:14:14.107Z,18.36
2023-05-13T11:16:46.024Z,17.92
2023-05-13T11:19:23.742Z,17.90
2023-05-13T11:21:53.074Z,18.62
2023-05-13T11:24:20.624Z,18.90
2023-05-13T11:26:53.742Z,18.75
2023-05-13T11:29:29.739Z,19.09
2023-05-13T11:32:00.333Z,18.82
2023-05-13T11:34:27.709Z,19.17
2023-05-13T11:37:03.464Z,18.99
2023-05-13T11:39:30.688Z,19.09
2023-05-13T11:41:57.801Z,19.29
2023-05-13T11:44:25.845Z,18.52
2023-05-13T11:47:00.545Z,19.40
2023-05-13T11:49:35.387Z,19.91
2023-05-13T11:52:10.979Z,19.17
2023-05-13T11:54:47.294Z,19.96
2023-05-13T11:57:32.576Z,19.86
2023-05-13T12:00:01.109Z,20.08
2023-05-13T12:02:48.035Z,20.04
2023-05-13T12:05:14.701Z,20.15
2023-05-13T12:07:41.324Z,19.44
2023-05-13T12:10:08.312Z,19.75
2023-05-13T12:12:39.346Z,19.83
2023-05-13T12:15:09.173Z,20.49
2023-05-13T12:17:36.012Z,20.40
2023-05-13T12:20:08.817Z,20.78
2023-05-13T12:22:36.950Z,20.99
2023-05-13T12:25:41.596Z,20.06
2023-05-13T12:28:24.529Z,19.74
2023-05-13T12:30:57.671Z,18.92
2023-05-13T12:33:31.518Z,19.10
2023-05-13T12:36:26.157Z,18.79
2023-05-13T12:39:00.508Z,18.65
2023-05-13T12:41:30.692Z,19.01
2023-05-13T12:43:58.779Z,19.61
2023-05-13T12:46:25.722Z,19.14
2023-05-13T13:30:02.185Z,18.10
2023-05-13T13:32:28.944Z,18.42
2023-05-13T13:34:55.975Z,18.48
2023-05-13T13:37:22.572Z,18.92
2023-05-13T13:39:49.146Z,18.88
2023-05-13T13:42:15.815Z,19.78
2023-05-13T13:44:42.690Z,19.01
2023-05-13T13:47:09.786Z,19.28
2023-05-13T13:49:36.508Z,18.46
2023-05-13T13:52:03.366Z,18.49
2023-05-13T13:54:29.874Z,18.63
2023-05-13T13:56:56.437Z,19.47
2023-05-13T13:59:22.980Z,19.49
2023-05-13T14:01:49.765Z,19.30
2023-05-13T14:04:20.269Z,19.10
2023-05-13T14:06:47.129Z,19.23
2023-05-13T14:09:13.669Z,19.36
2023-05-13T14:11:40.252Z,19.61
2023-05-13T14:14:07.063Z,19.33
2023-05-13T14:16:33.796Z,19.82
2023-05-13T14:19:00.771Z,20.45
2023-05-13T14:21:27.443Z,20.39
2023-05-13T14:23:54.147Z,20.42
2023-05-13T14:26:21.303Z,19.79
2023-05-13T14:28:47.920Z,20.05
2023-05-13T14:31:14.539Z,19.77
2023-05-13T14:33:41.208Z,20.98
2023-05-13T14:36:09.528Z,20.78
2023-05-13T14:38:36.144Z,21.17
2023-05-13T14:41:02.665Z,21.96
2023-05-13T14:43:29.138Z,22.20
2023-05-13T14:45:55.835Z,20.81
2023-05-13T14:48:22.386Z,20.18
2023-05-13T14:50:48.989Z,19.95
2023-05-13T14:53:15.627Z,20.27
2023-05-13T14:55:42.226Z,21.57
2023-05-13T14:58:09.278Z,23.48
2023-05-13T15:00:39.808Z,22.92
2023-05-13T15:03:06.600Z,22.74
2023-05-13T15:05:33.457Z,21.24
2023-05-13T15:08:01.010Z,21.26
2023-05-13T15:10:27.546Z,21.49
2023-05-13T15:12:54.140Z,23.70
2023-05-13T15:15:20.870Z,24.06
2023-05-13T15:17:47.658Z,21.95
2023-05-13T15:20:14.255Z,20.61
2023-05-13T15:22:40.772Z,19.80
2023-05-13T15:25:08.075Z,19.27
2023-05-13T15:27:35.077Z,19.42
2023-05-13T15:30:01.903Z,18.43
2023-05-13T15:32:28.595Z,18.45
2023-05-13T15:34:55.368Z,17.83
2023-05-13T15:37:22.073Z,17.79
2023-05-13T15:39:48.655Z,17.90
2023-05-13T15:42:15.828Z,17.84
2023-05-13T15:44:42.385Z,17.67
2023-05-13T15:47:09.033Z,17.38
2023-05-13T15:49:35.844Z,17.48
2023-05-13T15:52:06.229Z,17.42
2023-05-13T15:54:33.834Z,17.77
2023-05-13T15:57:00.399Z,17.14
2023-05-13T15:59:27.039Z,17.21
2023-05-13T16:01:53.724Z,17.31
2023-05-13T16:04:20.466Z,17.29
2023-05-13T16:06:47.085Z,17.21
2023-05-13T16:09:13.810Z,16.99
2023-05-13T16:11:40.358Z,17.20
2023-05-13T16:14:08.629Z,17.59
2023-05-13T16:16:35.482Z,17.40
2023-05-13T16:19:03.717Z,17.38
2023-05-13T16:21:31.729Z,17.58
2023-05-13T16:23:58.628Z,17.68
2023-05-13T16:26:26.324Z,17.56
2023-05-13T16:28:52.992Z,17.32
2023-05-13T16:31:19.706Z,17.50
2023-05-13T16:33:46.284Z,17.64
2023-05-13T16:36:12.841Z,17.65
2023-05-13T16:38:41.681Z,17.71
2023-05-13T16:41:08.620Z,17.57
2023-05-13T16:43:35.341Z,17.42
2023-05-13T16:46:02.077Z,17.54
2023-05-13T16:48:28.810Z,17.22
2023-05-13T16:50:56.258Z,16.52
2023-05-13T16:53:23.311Z,16.72
2023-05-13T16:55:50.222Z,16.47
2023-05-13T16:58:17.414Z,16.39
2023-05-13T17:00:44.480Z,16.14
2023-05-13T17:03:13.334Z,16.13
2023-05-13T17:05:40.197Z,16.42
2023-05-13T17:08:06.779Z,16.24
2023-05-13T17:10:33.545Z,15.94
2023-05-13T17:13:00.154Z,15.91
2023-05-13T17:15:26.819Z,15.93
2023-05-13T17:17:53.577Z,16.43
2023-05-13T17:20:20.667Z,16.02
2023-05-13T17:22:47.719Z,16.00
2023-05-13T17:25:14.783Z,15.28
2023-05-13T17:27:41.681Z,15.38
2023-05-13T17:30:09.034Z,15.04
2023-05-13T17:32:35.847Z,15.51
2023-05-13T17:35:05.019Z,15.13
2023-05-13T17:37:31.688Z,15.40
2023-05-13T17:40:00.886Z,15.14
2023-05-13T17:42:29.014Z,15.00
2023-05-13T17:44:55.967Z,15.20
2023-05-13T17:47:22.783Z,15.29
2023-05-13T17:49:49.606Z,15.60
2023-05-13T17:52:16.161Z,15.35
2023-05-13T17:54:42.724Z,14.99
2023-05-13T17:57:11.137Z,14.96
2023-05-13T17:59:38.048Z,15.26
2023-05-13T18:02:04.906Z,15.12
2023-05-13T18:04:31.541Z,15.15
2023-05-13T18:06:58.209Z,15.28
2023-05-13T18:09:24.772Z,14.83
2023-05-13T18:11:51.382Z,15.13
2023-05-13T18:14:18.002Z,14.86
2023-05-13T18:16:44.704Z,14.52
2023-05-13T18:19:11.405Z,14.49
2023-05-13T18:21:38.084Z,14.22
2023-05-13T18:24:05.113Z,14.07
2023-05-13T18:26:31.928Z,14.17
2023-05-13T18:28:58.695Z,14.04
2023-05-13T18:31:25.475Z,14.06
2023-05-13T18:33:52.082Z,14.06
2023-05-13T18:36:18.726Z,13.76
2023-05-13T18:38:47.918Z,13.65
2023-05-13T18:41:15.141Z,13.50
2023-05-13T18:43:41.750Z,13.80
2023-05-13T18:46:08.749Z,13.52
2023-05-13T18:48:35.640Z,13.37
2023-05-13T18:51:02.279Z,13.41
2023-05-13T18:53:28.827Z,13.29
2023-05-13T18:55:55.886Z,13.15
2023-05-13T18:58:22.745Z,13.17
2023-05-13T19:00:49.381Z,13.12
2023-05-13T19:03:16.131Z,13.01
2023-05-13T19:05:42.927Z,13.00
2023-05-13T19:08:09.683Z,13.06
2023-05-13T19:10:40.037Z,12.90
2023-05-13T19:13:07.520Z,12.97
2023-05-13T19:15:34.266Z,12.91
2023-05-13T19:18:01.231Z,12.90
2023-05-13T19:20:28.014Z,12.93
2023-05-13T19:22:54.502Z,13.04
2023-05-13T19:25:21.078Z,13.20
2023-05-13T19:27:49.384Z,13.37
2023-05-13T19:30:16.083Z,13.31
2023-05-13T19:32:43.751Z,13.13
2023-05-13T19:35:11.134Z,13.24
2023-05-13T19:37:37.704Z,13.33
2023-05-13T19:40:04.876Z,13.34
2023-05-13T19:42:31.390Z,13.16
2023-05-13T19:44:58.040Z,12.99
2023-05-13T19:47:26.789Z,12.86
2023-05-13T19:49:53.632Z,12.82
2023-05-13T19:52:20.276Z,12.74
2023-05-13T19:54:46.834Z,12.82
2023-05-13T19:57:13.373Z,12.66
2023-05-13T19:59:41.763Z,12.73
2023-05-13T20:02:08.876Z,12.71
2023-05-13T20:04:35.671Z,12.70
2023-05-13T20:07:02.255Z,12.65
2023-05-13T20:09:28.905Z,12.65
2023-05-13T20:11:55.646Z,12.50
2023-05-13T20:14:28.570Z,12.49
2023-05-13T20:16:55.206Z,12.44
2023-05-13T20:19:21.822Z,12.33
2023-05-13T20:21:48.477Z,12.47
2023-05-13T20:24:15.107Z,12.48
2023-05-13T20:26:41.630Z,12.42
2023-05-13T20:29:08.597Z,12.34
2023-05-13T20:31:35.273Z,12.14
2023-05-13T20:34:03.408Z,12.00
2023-05-13T20:36:29.984Z,12.08
2023-05-13T20:38:56.577Z,12.04
2023-05-13T20:41:23.190Z,12.01
2023-05-13T20:43:49.776Z,12.02
2023-05-13T20:46:17.193Z,11.91
2023-05-13T20:48:44.084Z,12.06
2023-05-13T20:51:10.744Z,12.06
2023-05-13T20:53:37.601Z,12.17
2023-05-13T20:56:04.538Z,12.20
2023-05-13T20:58:31.276Z,12.26
2023-05-13T21:00:57.932Z,12.26
2023-05-13T21:03:25.613Z,12.38
2023-05-13T21:05:52.239Z,12.32
2023-05-13T21:08:18.848Z,12.31
2023-05-13T21:10:45.370Z,12.28
2023-05-13T21:13:12.072Z,12.36
2023-05-13T21:15:38.889Z,12.49
2023-05-13T21:18:05.645Z,12.46
2023-05-13T21:20:32.775Z,12.40
2023-05-13T21:23:00.859Z,12.38
2023-05-13T21:25:27.538Z,12.61
2023-05-13T21:27:54.380Z,12.63
2023-05-13T21:30:21.131Z,12.56
2023-05-13T21:32:47.761Z,12.47
2023-05-13T21:35:14.385Z,12.56
2023-05-13T21:37:40.905Z,12.54
2023-05-13T21:40:08.575Z,12.67
2023-05-13T21:42:35.196Z,12.67
2023-05-13T21:45:01.791Z,12.68
2023-05-13T21:47:29.699Z,12.66
2023-05-13T21:49:56.447Z,12.71
2023-05-13T21:52:23.033Z,12.74
2023-05-13T21:54:49.670Z,12.75
2023-05-13T21:57:16.631Z,12.76
2023-05-13T21:59:43.144Z,12.70
2023-05-13T22:02:09.753Z,12.74
2023-05-13T22:04:36.889Z,12.77
2023-05-13T22:07:03.522Z,12.70
2023-05-13T22:09:30.298Z,12.72
2023-05-13T22:11:56.901Z,12.72
2023-05-13T22:14:23.517Z,12.71
2023-05-13T22:17:00.839Z,12.58
2023-05-13T22:19:34.619Z,12.56
2023-05-13T22:22:01.175Z,12.66
2023-05-13T22:24:27.672Z,12.59
2023-05-13T22:26:54.205Z,12.70
2023-05-13T22:29:21.385Z,12.52
2023-05-13T22:31:48.022Z,12.42
2023-05-13T22:34:14.666Z,12.44
2023-05-13T22:36:43.838Z,12.27
2023-05-13T22:39:12.276Z,12.29
2023-05-13T22:41:38.839Z,12.17
2023-05-13T22:44:05.637Z,12.10
2023-05-13T22:46:32.332Z,12.16
2023-05-13T22:48:59.023Z,12.06
2023-05-13T22:51:25.677Z,12.05
2023-05-13T22:53:52.410Z,12.06
2023-05-13T22:56:19.094Z,11.94
2023-05-13T22:58:46.186Z,11.88
2023-05-13T23:01:13.074Z,11.85
2023-05-13T23:03:39.693Z,11.85
2023-05-13T23:06:06.454Z,11.89
2023-05-13T23:08:33.246Z,11.83
2023-05-13T23:10:59.843Z,11.85
2023-05-13T23:13:26.379Z,11.83
2023-05-13T23:15:52.970Z,11.80
2023-05-13T23:18:19.624Z,11.97
2023-05-13T23:20:53.138Z,12.01
2023-05-13T23:23:20.458Z,11.98
2023-05-13T23:25:47.484Z,12.02
2023-05-13T23:28:14.360Z,11.97
2023-05-13T23:30:41.581Z,11.97
2023-05-13T23:33:08.437Z,11.98
2023-05-13T23:35:35.496Z,12.00
2023-05-13T23:38:02.314Z,12.08
2023-05-13T23:40:28.948Z,12.04
2023-05-13T23:42:55.521Z,11.97
2023-05-13T23:45:22.062Z,12.01
2023-05-13T23:47:49.978Z,12.08
2023-05-13T23:50:16.590Z,11.90
2023-05-13T23:52:43.167Z,11.94
2023-05-13T23:55:09.874Z,12.00
2023-05-13T23:57:36.419Z,11.81
